Time;durP1;ratioP1;P1;durP2;ratioP2;P2;SDS_P1;SDS_P2;PMS_P1;PMS_P2;Temp;Humidity;BMP_temperature;BMP_pressure;BME280_temperature;BME280_humidity;BME280_pressure;Samples;Min_cycle;Max_cycle;Signal;HPM_P1;HPM_P2
2023/08/26 00:00:59;;;;;;;36.88;24.15;;;15.40;99.90;;;;;;6143426;23;20382;-81
2023/08/26 00:03:25;;;;;;;24.23;20.20;;;15.30;99.90;;;;;;6138900;23;20014;-81
2023/08/26 00:05:51;;;;;;;23.30;19.40;;;15.20;99.90;;;;;;6138688;23;20024;-79
2023/08/26 00:08:18;;;;;;;67.88;27.63;;;15.10;99.90;;;;;;6137761;23;20017;-81
2023/08/26 00:10:44;;;;;;;22.02;17.35;;;15.10;99.90;;;;;;6135426;23;20068;-81
2023/08/26 00:13:11;;;;;;;24.02;18.95;;;15.00;99.90;;;;;;6136106;23;20041;-80
2023/08/26 00:15:37;;;;;;;27.92;22.55;;;14.90;99.90;;;;;;6137018;23;20009;-81
2023/08/26 00:18:08;;;;;;;20.52;18.33;;;14.90;99.90;;;;;;6136747;23;20021;-81
2023/08/26 00:20:34;;;;;;;33.13;21.42;;;14.80;99.90;;;;;;6136883;23;20021;-81
2023/08/26 00:23:01;;;;;;;34.72;23.15;;;14.80;99.90;;;;;;6135170;23;20017;-81
2023/08/26 00:25:27;;;;;;;29.45;24.77;;;14.70;99.90;;;;;;6134894;23;20024;-81
2023/08/26 00:27:54;;;;;;;36.65;27.83;;;14.70;99.90;;;;;;6136440;23;20394;-79
2023/08/26 00:30:20;;;;;;;80.20;35.03;;;14.70;99.90;;;;;;6136441;23;20053;-80
2023/08/26 00:32:47;;;;;;;32.00;24.92;;;14.80;99.90;;;;;;6137100;23;20017;-81
2023/08/26 00:35:13;;;;;;;78.20;36.80;;;14.80;99.90;;;;;;6135687;23;20079;-81
2023/08/26 00:37:39;;;;;;;59.63;32.67;;;14.80;99.90;;;;;;6136014;23;20014;-80
2023/08/26 00:40:06;;;;;;;36.70;28.85;;;14.90;99.90;;;;;;6134657;23;20454;-81
2023/08/26 00:42:36;;;;;;;49.50;31.90;;;14.90;99.90;;;;;;6134447;23;20469;-81
2023/08/26 00:45:02;;;;;;;33.33;28.58;;;15.00;99.90;;;;;;6135975;23;20017;-80
2023/08/26 00:47:29;;;;;;;37.65;28.23;;;15.00;99.90;;;;;;6136689;23;20040;-81
2023/08/26 00:49:55;;;;;;;29.40;25.33;;;15.00;99.90;;;;;;6136698;23;20017;-81
2023/08/26 00:52:21;;;;;;;27.58;23.95;;;15.10;99.90;;;;;;6136071;23;20182;-81
2023/08/26 00:54:47;;;;;;;50.20;33.00;;;15.10;99.90;;;;;;6135518;23;20025;-81
2023/08/26 00:57:16;;;;;;;30.65;25.45;;;15.10;99.90;;;;;;6137989;23;20097;-81
2023/08/26 00:59:42;;;;;;;49.85;30.83;;;15.20;99.90;;;;;;6139028;23;20025;-80
2023/08/26 01:02:09;;;;;;;43.85;26.90;;;15.20;99.90;;;;;;6136861;23;20013;-81
2023/08/26 01:04:35;;;;;;;30.08;26.05;;;15.20;99.90;;;;;;6135031;23;20096;-80
2023/08/26 01:07:02;;;;;;;26.88;23.83;;;15.20;99.90;;;;;;6137388;23;20037;-81
2023/08/26 01:09:28;;;;;;;24.83;21.50;;;15.20;99.90;;;;;;6141816;23;20024;-81
2023/08/26 01:12:33;;;;;;;28.48;24.45;;;15.20;99.90;;;;;;6141622;23;20021;-81
2023/08/26 01:15:08;;;;;;;28.83;22.45;;;15.20;99.90;;;;;;6114485;23;20023;-81
2023/08/26 01:17:34;;;;;;;25.27;22.60;;;15.10;99.90;;;;;;6129998;23;20014;-81
2023/08/26 01:20:04;;;;;;;28.17;23.65;;;15.10;99.90;;;;;;6131184;23;20014;-81
2023/08/26 01:22:34;;;;;;;45.13;26.33;;;15.10;99.90;;;;;;6130363;23;20385;-81
2023/08/26 01:25:01;;;;;;;45.08;27.75;;;15.10;99.90;;;;;;6130718;23;20009;-81
2023/08/26 01:27:27;;;;;;;32.10;25.27;;;15.10;99.90;;;;;;6128570;23;20025;-81
2023/08/26 01:29:54;;;;;;;25.00;20.73;;;15.10;99.90;;;;;;6130265;23;20442;-81
2023/08/26 01:32:39;;;;;;;28.55;23.98;;;15.10;99.90;;;;;;6130084;23;20017;-81
2023/08/26 01:35:11;;;;;;;33.30;24.35;;;15.10;99.90;;;;;;6129737;23;20017;-81
2023/08/26 01:37:41;;;;;;;30.67;23.63;;;15.10;99.90;;;;;;6129425;23;20377;-81
2023/08/26 01:40:09;;;;;;;52.75;29.50;;;15.10;99.90;;;;;;6129748;23;20481;-82
2023/08/26 01:42:37;;;;;;;28.95;22.67;;;15.10;99.90;;;;;;6129516;23;20014;-81
2023/08/26 01:45:05;;;;;;;30.67;25.27;;;15.00;99.90;;;;;;6129744;23;20013;-81
2023/08/26 01:47:31;;;;;;;36.28;24.80;;;15.10;99.90;;;;;;6129733;23;20017;-81
2023/08/26 01:49:58;;;;;;;25.70;21.98;;;15.00;99.90;;;;;;6129270;23;20145;-81
2023/08/26 01:52:24;;;;;;;30.42;22.63;;;15.00;99.90;;;;;;6129002;23;20020;-80
2023/08/26 01:54:50;;;;;;;31.38;24.13;;;15.10;99.90;;;;;;6128924;23;20017;-80
2023/08/26 01:57:16;;;;;;;44.40;30.48;;;15.10;99.90;;;;;;6129262;23;20077;-80
2023/08/26 01:59:43;;;;;;;40.70;27.85;;;15.10;99.90;;;;;;6129367;23;20454;-81
2023/08/26 02:02:09;;;;;;;36.30;25.13;;;15.10;99.90;;;;;;6129279;23;20088;-81
2023/08/26 02:04:37;;;;;;;28.98;23.40;;;15.10;99.90;;;;;;6129404;23;20052;-81
2023/08/26 02:07:04;;;;;;;30.27;22.15;;;15.10;99.90;;;;;;6127319;23;20014;-81
2023/08/26 02:09:30;;;;;;;30.48;24.13;;;15.10;99.90;;;;;;6128406;23;20017;-81
2023/08/26 02:11:56;;;;;;;24.88;21.15;;;15.10;99.90;;;;;;6128972;23;20211;-81
2023/08/26 02:14:23;;;;;;;26.38;23.55;;;15.10;99.90;;;;;;6128671;23;20021;-80
2023/08/26 02:16:49;;;;;;;43.63;28.05;;;15.10;99.90;;;;;;6129820;23;20048;-81
2023/08/26 02:19:14;;;;;;;27.30;21.98;;;15.00;99.90;;;;;;6131099;23;20018;-81
2023/08/26 02:21:40;;;;;;;28.10;23.85;;;15.00;99.90;;;;;;6130216;23;20014;-81
2023/08/26 02:24:08;;;;;;;22.23;19.52;;;15.00;99.90;;;;;;6131206;23;20297;-81
2023/08/26 02:26:35;;;;;;;47.60;27.05;;;14.90;99.90;;;;;;6130254;23;20017;-81
2023/08/26 02:29:03;;;;;;;24.83;22.15;;;14.90;99.90;;;;;;6130776;23;20018;-81
2023/08/26 02:31:29;;;;;;;19.92;17.98;;;14.80;99.90;;;;;;6130887;23;20025;-81
2023/08/26 02:33:55;;;;;;;23.77;21.20;;;14.70;99.90;;;;;;6130200;23;20084;-81
2023/08/26 02:36:22;;;;;;;58.47;29.90;;;14.70;99.90;;;;;;6129652;23;20013;-81
2023/08/26 02:38:49;;;;;;;30.73;20.08;;;14.60;99.90;;;;;;6131055;23;20053;-81
2023/08/26 02:41:15;;;;;;;45.30;25.73;;;14.50;99.90;;;;;;6130803;23;20009;-81
2023/08/26 02:43:41;;;;;;;35.83;23.75;;;14.40;99.90;;;;;;6130890;23;20314;-81
2023/08/26 02:46:08;;;;;;;40.13;25.30;;;14.40;99.90;;;;;;6129707;23;20088;-78
2023/08/26 02:48:34;;;;;;;24.02;21.42;;;14.30;99.90;;;;;;6129905;23;20013;-81
2023/08/26 02:51:02;;;;;;;22.65;20.33;;;14.30;99.90;;;;;;6130862;23;20019;-81
2023/08/26 02:53:30;;;;;;;30.48;23.00;;;14.10;99.90;;;;;;6136667;23;20064;-81
2023/08/26 02:55:56;;;;;;;28.55;23.83;;;14.20;99.90;;;;;;6147636;23;20044;-80
2023/08/26 02:58:23;;;;;;;36.20;25.77;;;14.20;99.90;;;;;;6132906;23;20080;-81
2023/08/26 03:00:50;;;;;;;28.02;23.25;;;14.10;99.90;;;;;;6131772;23;20053;-81
2023/08/26 03:03:16;;;;;;;71.03;35.35;;;14.20;99.90;;;;;;6131484;23;20018;-82
2023/08/26 03:05:43;;;;;;;35.50;28.30;;;14.10;99.90;;;;;;6132117;23;20069;-82
2023/08/26 03:08:09;;;;;;;33.60;27.73;;;14.10;99.90;;;;;;6131929;23;20029;-81
2023/08/26 03:10:36;;;;;;;33.22;29.17;;;14.10;99.90;;;;;;6130640;23;20477;-83
2023/08/26 03:13:02;;;;;;;28.65;25.88;;;14.10;99.90;;;;;;6129154;23;20449;-83
2023/08/26 03:15:29;;;;;;;37.22;29.50;;;14.10;99.90;;;;;;6129133;23;20024;-82
2023/08/26 03:17:56;;;;;;;39.45;31.15;;;14.00;99.90;;;;;;6130277;23;20406;-81
2023/08/26 03:20:23;;;;;;;59.35;38.38;;;14.10;99.90;;;;;;6131197;23;20017;-81
2023/08/26 03:22:49;;;;;;;50.47;36.25;;;14.10;99.90;;;;;;6131256;23;20009;-81
2023/08/26 03:25:16;;;;;;;34.75;31.15;;;14.10;99.90;;;;;;6130544;23;20450;-81
2023/08/26 03:27:42;;;;;;;40.15;33.53;;;14.20;99.90;;;;;;6130041;23;20464;-81
2023/08/26 03:30:08;;;;;;;34.00;30.65;;;14.20;99.90;;;;;;6130308;23;20013;-82
2023/08/26 03:32:34;;;;;;;32.03;28.83;;;14.20;99.90;;;;;;6131531;23;20014;-81
2023/08/26 03:35:04;;;;;;;51.95;35.40;;;14.20;99.90;;;;;;6129858;23;20014;-80
2023/08/26 03:37:29;;;;;;;62.30;39.15;;;14.30;99.90;;;;;;6128956;23;20017;-84
2023/08/26 03:39:55;;;;;;;38.28;34.13;;;14.30;99.90;;;;;;6128748;23;20016;-84
2023/08/26 03:42:21;;;;;;;38.47;33.22;;;14.30;99.90;;;;;;6129439;23;20005;-84
2023/08/26 03:44:46;;;;;;;37.80;33.72;;;14.30;99.90;;;;;;6129264;23;20091;-84
2023/08/26 03:47:12;;;;;;;39.70;32.65;;;14.40;99.90;;;;;;6124240;23;20013;-84
2023/08/26 03:49:37;;;;;;;63.75;39.75;;;14.40;99.90;;;;;;6100169;23;20014;-84
2023/08/26 03:52:03;;;;;;;33.85;30.40;;;14.40;99.90;;;;;;6099695;23;20517;-84
2023/08/26 03:54:29;;;;;;;57.25;36.97;;;14.40;99.90;;;;;;6124128;23;20025;-84
2023/08/26 03:56:54;;;;;;;76.85;40.10;;;14.40;99.90;;;;;;6123918;23;20325;-84
2023/08/26 03:59:20;;;;;;;38.58;32.05;;;14.40;99.90;;;;;;6124181;23;20088;-84
2023/08/26 04:01:46;;;;;;;42.55;33.70;;;14.30;99.90;;;;;;6100016;23;20014;-84
2023/08/26 04:04:11;;;;;;;43.28;34.15;;;14.30;99.90;;;;;;6099718;23;20397;-84
2023/08/26 04:06:37;;;;;;;43.55;33.30;;;14.30;99.90;;;;;;6123874;23;20073;-84
2023/08/26 04:09:03;;;;;;;81.70;44.33;;;14.30;99.90;;;;;;6099325;23;20349;-84
2023/08/26 04:11:29;;;;;;;37.88;33.42;;;14.20;99.90;;;;;;6099956;23;20014;-84
2023/08/26 04:13:54;;;;;;;43.05;35.20;;;14.20;99.90;;;;;;6099356;23;20049;-84
2023/08/26 04:16:21;;;;;;;44.85;35.08;;;14.30;99.90;;;;;;6098898;23;20013;-84
2023/08/26 04:18:47;;;;;;;52.67;37.60;;;14.30;99.90;;;;;;6123362;23;20020;-84
2023/08/26 04:21:13;;;;;;;52.67;38.33;;;14.30;99.90;;;;;;6124267;23;20009;-84
2023/08/26 04:23:39;;;;;;;37.47;31.52;;;14.20;99.90;;;;;;6123378;23;20073;-84
2023/08/26 04:26:05;;;;;;;47.80;35.42;;;14.20;99.90;;;;;;6099239;23;20013;-84
2023/08/26 04:28:31;;;;;;;36.63;32.38;;;14.20;99.90;;;;;;6099321;23;20017;-84
2023/08/26 04:30:58;;;;;;;40.13;32.97;;;14.20;99.90;;;;;;6099517;23;20090;-84
2023/08/26 04:33:24;;;;;;;44.47;35.63;;;14.20;99.90;;;;;;6123688;23;20018;-84
2023/08/26 04:35:50;;;;;;;50.03;38.15;;;14.30;99.90;;;;;;6098759;23;20024;-84
2023/08/26 04:38:16;;;;;;;44.17;35.10;;;14.30;99.90;;;;;;6123692;23;20021;-85
2023/08/26 04:40:41;;;;;;;47.15;34.50;;;14.30;99.90;;;;;;6124415;23;20079;-84
2023/08/26 04:43:10;;;;;;;36.35;31.48;;;14.30;99.90;;;;;;6123761;23;20010;-83
2023/08/26 04:45:37;;;;;;;36.53;32.38;;;14.40;99.90;;;;;;6098416;23;20057;-84
2023/08/26 04:48:04;;;;;;;63.03;37.60;;;14.40;99.90;;;;;;6098901;23;20018;-85
2023/08/26 04:50:30;;;;;;;38.70;31.45;;;14.40;99.90;;;;;;6099164;23;20013;-84
2023/08/26 04:52:56;;;;;;;37.90;31.70;;;14.40;99.90;;;;;;6123877;23;20092;-84
2023/08/26 04:55:21;;;;;;;39.08;30.55;;;14.50;99.90;;;;;;6123391;23;20014;-84
2023/08/26 04:57:47;;;;;;;34.30;27.88;;;14.50;99.90;;;;;;6123383;23;20446;-84
2023/08/26 05:00:16;;;;;;;28.73;25.73;;;14.50;99.90;;;;;;6123402;23;20085;-85
2023/08/26 05:02:42;;;;;;;50.95;32.78;;;14.60;99.90;;;;;;6098639;23;20193;-84
2023/08/26 05:05:08;;;;;;;35.40;30.40;;;14.60;99.90;;;;;;6099113;23;20057;-84
2023/08/26 05:07:33;;;;;;;30.38;27.17;;;14.60;99.90;;;;;;6099001;23;20009;-85
2023/08/26 05:10:00;;;;;;;35.25;28.35;;;14.70;99.90;;;;;;6099175;23;20447;-85
2023/08/26 05:12:26;;;;;;;48.47;34.30;;;14.70;99.90;;;;;;6098938;23;20020;-84
2023/08/26 05:14:51;;;;;;;40.90;31.92;;;14.70;99.90;;;;;;6122703;23;20097;-85
2023/08/26 05:17:17;;;;;;;86.60;44.13;;;14.80;99.90;;;;;;6098425;23;20018;-84
2023/08/26 05:19:43;;;;;;;55.80;38.88;;;14.80;99.90;;;;;;6099088;23;20089;-84
2023/08/26 05:22:08;;;;;;;45.97;35.55;;;14.80;99.90;;;;;;6098623;23;20017;-84
2023/08/26 05:24:34;;;;;;;36.00;32.35;;;14.80;99.90;;;;;;6098600;23;20014;-84
2023/08/26 05:27:00;;;;;;;38.53;32.40;;;14.80;99.90;;;;;;6123378;23;20013;-84
2023/08/26 05:29:25;;;;;;;36.40;31.48;;;14.80;99.90;;;;;;6123608;23;20014;-84
2023/08/26 05:31:51;;;;;;;52.10;37.80;;;14.90;99.90;;;;;;6097206;23;20018;-84
2023/08/26 05:34:17;;;;;;;41.40;31.83;;;14.90;99.90;;;;;;6095744;23;20044;-84
2023/08/26 05:36:42;;;;;;;82.03;36.80;;;14.90;99.90;;;;;;6098881;23;20044;-84
2023/08/26 05:39:08;;;;;;;27.52;24.73;;;14.90;99.90;;;;;;6123402;23;20088;-84
2023/08/26 05:41:33;;;;;;;50.45;34.80;;;14.90;99.90;;;;;;6098343;23;20533;-84
2023/08/26 05:43:59;;;;;;;30.88;27.67;;;14.90;99.90;;;;;;6123256;23;20017;-83
2023/08/26 05:46:25;;;;;;;29.48;26.35;;;15.00;99.90;;;;;;6122511;23;20010;-83
2023/08/26 05:48:50;;;;;;;34.80;30.17;;;15.00;99.90;;;;;;6122897;23;20093;-84
2023/08/26 05:51:16;;;;;;;41.70;34.58;;;15.00;99.90;;;;;;6098875;23;20021;-84
2023/08/26 05:53:41;;;;;;;38.47;32.60;;;15.00;99.90;;;;;;6098445;23;20159;-84
2023/08/26 05:56:07;;;;;;;35.70;31.92;;;15.20;99.90;;;;;;6098443;23;20092;-84
2023/08/26 05:58:33;;;;;;;32.92;29.50;;;15.10;99.90;;;;;;6098223;23;20013;-84
2023/08/26 06:00:59;;;;;;;38.15;34.17;;;15.20;99.90;;;;;;6098329;23;20006;-84
2023/08/26 06:03:24;;;;;;;34.70;31.02;;;15.20;99.90;;;;;;6098567;23;20041;-84
2023/08/26 06:05:50;;;;;;;34.13;30.55;;;15.20;99.90;;;;;;6122348;23;20025;-84
2023/08/26 06:08:19;;;;;;;35.72;32.03;;;15.30;99.90;;;;;;6123181;23;20021;-85
2023/08/26 06:10:44;;;;;;;36.05;32.25;;;15.30;99.90;;;;;;6123484;23;20014;-86
2023/08/26 06:13:10;;;;;;;31.20;28.13;;;15.30;99.90;;;;;;6122292;23;20017;-83
2023/08/26 06:15:36;;;;;;;37.70;33.42;;;15.30;99.90;;;;;;6097192;23;20042;-85
2023/08/26 06:18:01;;;;;;;33.72;30.42;;;15.20;99.90;;;;;;6097769;23;20022;-84
2023/08/26 06:20:27;;;;;;;31.38;28.10;;;15.20;99.90;;;;;;6122663;23;20435;-84
2023/08/26 06:22:53;;;;;;;30.88;27.70;;;15.20;99.90;;;;;;6099052;23;20010;-84
2023/08/26 06:25:20;;;;;;;36.63;31.15;;;15.20;99.90;;;;;;6122529;23;20016;-85
2023/08/26 06:27:45;;;;;;;30.25;27.30;;;15.20;99.90;;;;;;6097263;23;20101;-84
2023/08/26 06:30:11;;;;;;;32.10;27.88;;;15.20;99.90;;;;;;6098682;23;20010;-84
2023/08/26 06:32:37;;;;;;;37.80;33.05;;;15.10;99.90;;;;;;6122886;23;20010;-85
2023/08/26 06:35:04;;;;;;;25.80;23.40;;;15.10;99.90;;;;;;6098695;23;20397;-84
2023/08/26 06:37:30;;;;;;;30.73;27.52;;;15.10;99.90;;;;;;6122619;23;20081;-83
2023/08/26 06:39:56;;;;;;;30.48;27.58;;;15.10;99.90;;;;;;6099135;23;20064;-84
2023/08/26 06:42:21;;;;;;;30.77;27.55;;;15.10;99.90;;;;;;6098206;23;20161;-85
2023/08/26 06:44:47;;;;;;;37.33;33.15;;;15.30;99.90;;;;;;6098862;23;20010;-84
2023/08/26 06:47:13;;;;;;;32.97;29.65;;;15.40;99.90;;;;;;6097263;23;20017;-85
2023/08/26 06:49:38;;;;;;;37.45;33.88;;;15.50;99.90;;;;;;6122731;23;20045;-84
2023/08/26 06:52:04;;;;;;;31.42;28.27;;;15.60;99.90;;;;;;6121556;23;20024;-84
2023/08/26 06:54:33;;;;;;;43.72;37.75;;;15.70;99.90;;;;;;6122606;23;20088;-85
2023/08/26 06:56:58;;;;;;;31.55;28.52;;;15.80;99.90;;;;;;6122561;23;20010;-83
2023/08/26 06:59:24;;;;;;;32.38;29.13;;;15.80;99.90;;;;;;6098863;23;20020;-83
2023/08/26 07:01:49;;;;;;;31.08;28.08;;;15.80;99.90;;;;;;6098203;23;20013;-84
2023/08/26 07:04:15;;;;;;;27.45;25.05;;;15.80;99.90;;;;;;6125096;23;20010;-84
2023/08/26 07:06:41;;;;;;;33.58;30.40;;;15.70;99.90;;;;;;6123310;23;20021;-85
2023/08/26 07:09:06;;;;;;;29.25;26.55;;;15.80;99.90;;;;;;6123469;23;20050;-84
2023/08/26 07:11:32;;;;;;;34.58;31.13;;;15.90;99.90;;;;;;6100332;23;20351;-84
2023/08/26 07:13:58;;;;;;;32.42;29.55;;;15.90;99.90;;;;;;6100478;23;20098;-84
2023/08/26 07:16:28;;;;;;;34.53;30.88;;;16.00;99.90;;;;;;6099635;23;20013;-85
2023/08/26 07:18:54;;;;;;;31.98;29.02;;;16.00;99.90;;;;;;6124453;23;20010;-85
2023/08/26 07:21:20;;;;;;;32.47;29.67;;;16.00;99.90;;;;;;6100486;23;20350;-84
2023/08/26 07:23:45;;;;;;;26.40;23.92;;;16.20;99.90;;;;;;6123763;23;20069;-84
2023/08/26 07:26:11;;;;;;;27.65;25.20;;;16.30;99.90;;;;;;6124634;23;20009;-85
2023/08/26 07:28:37;;;;;;;29.35;26.85;;;16.40;99.90;;;;;;6100122;23;20018;-83
2023/08/26 07:31:05;;;;;;;27.85;25.35;;;16.40;99.90;;;;;;6099967;23;20017;-85
2023/08/26 07:33:31;;;;;;;25.33;22.90;;;16.50;99.90;;;;;;6122806;23;20469;-86
2023/08/26 07:36:06;;;;;;;23.60;21.35;;;16.40;99.90;;;;;;6123517;23;20045;-86
2023/08/26 07:38:31;;;;;;;28.05;25.40;;;16.40;99.90;;;;;;6123690;23;20399;-86
2023/08/26 07:41:00;;;;;;;24.42;22.17;;;16.30;99.90;;;;;;6099250;23;20014;-86
2023/08/26 07:43:26;;;;;;;29.30;26.48;;;16.40;99.90;;;;;;6099816;23;20393;-85
2023/08/26 07:45:51;;;;;;;23.80;21.60;;;16.40;99.90;;;;;;6124524;23;20013;-85
2023/08/26 07:48:17;;;;;;;26.30;23.80;;;16.50;99.90;;;;;;6099833;23;20014;-85
2023/08/26 07:50:43;;;;;;;29.17;26.58;;;16.60;99.90;;;;;;6100233;23;20073;-85
2023/08/26 07:53:09;;;;;;;27.77;24.98;;;16.70;99.90;;;;;;6100225;23;20014;-85
2023/08/26 07:55:35;;;;;;;28.85;26.33;;;16.70;99.90;;;;;;6123749;23;20088;-85
2023/08/26 07:58:05;;;;;;;28.98;26.42;;;16.80;99.90;;;;;;6123408;23;20018;-85
2023/08/26 08:00:31;;;;;;;29.52;26.63;;;16.90;99.90;;;;;;6124286;23;20411;-86
2023/08/26 08:02:57;;;;;;;26.00;23.63;;;17.10;99.90;;;;;;6123812;23;20014;-85
2023/08/26 08:05:23;;;;;;;25.88;23.80;;;17.20;99.90;;;;;;6100135;23;20020;-85
2023/08/26 08:07:48;;;;;;;25.50;23.23;;;17.30;99.90;;;;;;6124050;23;20010;-85
2023/08/26 08:10:14;;;;;;;21.80;19.77;;;17.30;99.90;;;;;;6099714;23;20089;-85
2023/08/26 08:12:40;;;;;;;23.45;21.17;;;17.30;99.90;;;;;;6099579;23;20014;-85
2023/08/26 08:15:06;;;;;;;23.80;21.67;;;17.30;99.90;;;;;;6099065;23;20006;-85
2023/08/26 08:17:32;;;;;;;23.88;21.77;;;17.40;99.90;;;;;;6099042;23;20096;-85
2023/08/26 08:19:58;;;;;;;19.30;17.40;;;17.50;99.90;;;;;;6099334;23;20395;-83
2023/08/26 08:22:36;;;;;;;16.95;15.27;;;17.60;99.90;;;;;;6123941;23;20066;-84
2023/08/26 08:25:03;;;;;;;13.35;11.88;;;17.70;99.90;;;;;;6099217;23;20021;-84
2023/08/26 08:27:30;;;;;;;12.43;11.23;;;17.70;99.90;;;;;;6123347;23;20018;-85
2023/08/26 08:29:57;;;;;;;14.52;13.05;;;17.70;99.90;;;;;;6123881;23;20042;-84
2023/08/26 08:32:23;;;;;;;13.80;12.27;;;17.80;99.90;;;;;;6099817;23;20025;-85
2023/08/26 08:34:48;;;;;;;13.02;11.60;;;18.00;99.90;;;;;;6123165;23;20014;-84
2023/08/26 08:37:14;;;;;;;16.38;14.75;;;18.30;99.90;;;;;;6098381;23;20411;-85
2023/08/26 08:39:40;;;;;;;15.65;12.98;;;18.50;99.90;;;;;;6099274;23;20355;-85
2023/08/26 08:42:09;;;;;;;13.05;11.38;;;18.70;99.90;;;;;;6124153;23;20010;-84
2023/08/26 08:44:40;;;;;;;14.70;10.32;;;19.00;99.90;;;;;;6123711;23;20477;-85
2023/08/26 08:47:06;;;;;;;12.85;10.40;;;19.20;99.90;;;;;;6123371;23;20010;-86
2023/08/26 08:49:33;;;;;;;12.25;8.68;;;19.40;99.90;;;;;;6122793;23;20109;-85
2023/08/26 08:52:00;;;;;;;15.35;9.52;;;19.40;99.90;;;;;;6121787;23;20093;-86
2023/08/26 08:54:27;;;;;;;11.30;9.13;;;19.40;99.90;;;;;;6122525;23;20014;-86
2023/08/26 08:56:54;;;;;;;9.60;8.35;;;19.70;99.90;;;;;;6098629;23;20010;-84
2023/08/26 08:59:20;;;;;;;11.93;7.60;;;20.20;99.90;;;;;;6100942;23;20014;-86
2023/08/26 09:01:46;;;;;;;8.13;5.85;;;20.60;99.90;;;;;;6123381;23;20065;-85
2023/08/26 09:04:11;;;;;;;9.10;5.85;;;21.00;99.90;;;;;;6122112;23;20052;-85
2023/08/26 09:06:38;;;;;;;10.65;5.22;;;21.30;99.90;;;;;;6098604;23;20013;-86
2023/08/26 09:09:10;;;;;;;10.43;5.50;;;21.30;99.90;;;;;;6098623;23;20018;-86
2023/08/26 09:11:37;;;;;;;12.70;4.75;;;21.60;99.90;;;;;;6098313;23;20018;-85
2023/08/26 09:14:02;;;;;;;8.10;4.07;;;22.00;99.90;;;;;;6122997;23;20715;-84
2023/08/26 09:16:33;;;;;;;9.70;3.97;;;22.50;99.90;;;;;;6122968;23;20014;-85
2023/08/26 09:18:59;;;;;;;4.90;3.22;;;22.80;99.90;;;;;;6122821;23;20013;-86
2023/08/26 09:21:25;;;;;;;7.28;3.40;;;23.10;99.90;;;;;;6122596;23;20148;-86
2023/08/26 09:23:54;;;;;;;8.07;3.15;;;23.40;99.90;;;;;;6123185;23;20014;-86
2023/08/26 09:26:24;;;;;;;6.90;3.10;;;23.80;99.90;;;;;;6098031;23;20013;-85
2023/08/26 09:28:50;;;;;;;7.35;3.22;;;23.80;99.90;;;;;;6098791;23;20017;-86
2023/08/26 09:31:17;;;;;;;9.73;3.80;;;23.70;99.90;;;;;;6123147;23;20018;-84
2023/08/26 09:33:50;;;;;;;5.68;3.00;;;23.80;99.90;;;;;;6098819;23;20350;-83
2023/08/26 09:36:16;;;;;;;6.72;2.70;;;24.10;99.90;;;;;;6132387;23;20836;-81
2023/08/26 09:38:47;;;;;;;7.40;2.60;;;24.50;99.90;;;;;;6134572;23;20048;-80
2023/08/26 09:41:19;;;;;;;5.30;2.65;;;24.50;99.90;;;;;;6161789;23;20024;-81
2023/08/26 09:43:46;;;;;;;7.30;2.35;;;24.60;99.90;;;;;;6135871;23;20498;-82
2023/08/26 09:46:18;;;;;;;6.38;2.30;;;24.70;99.90;;;;;;6159968;23;20009;-82
2023/08/26 09:48:44;;;;;;;5.80;2.10;;;24.90;99.90;;;;;;6159166;23;20017;-82
2023/08/26 09:51:09;;;;;;;5.85;2.50;;;24.90;99.90;;;;;;6159695;23;20052;-83
2023/08/26 09:53:36;;;;;;;4.70;2.33;;;25.10;99.90;;;;;;6159664;23;20017;-81
2023/08/26 09:56:03;;;;;;;5.28;2.20;;;25.20;99.90;;;;;;6157665;23;20024;-79
2023/08/26 09:58:29;;;;;;;4.47;2.40;;;25.10;99.90;;;;;;6159225;23;20053;-78
2023/08/26 10:00:55;;;;;;;6.95;2.92;;;24.60;99.90;;;;;;6182335;23;20349;-78
2023/08/26 10:03:26;;;;;;;7.07;2.42;;;23.90;99.90;;;;;;6181972;23;20053;-77
2023/08/26 10:05:54;;;;;;;4.90;1.90;;;23.40;99.90;;;;;;6157652;23;20431;-77
2023/08/26 10:08:32;;;;;;;8.18;2.28;;;23.20;99.90;;;;;;6156613;23;20461;-77
2023/08/26 10:11:02;;;;;;;6.40;2.40;;;23.00;99.90;;;;;;6157135;23;20013;-78
2023/08/26 10:13:29;;;;;;;8.10;2.47;;;22.80;99.90;;;;;;6158175;23;20485;-78
2023/08/26 10:15:58;;;;;;;4.20;2.20;;;22.90;99.90;;;;;;6157824;23;20091;-77
2023/08/26 10:18:24;;;;;;;4.97;2.45;;;23.00;99.90;;;;;;6157311;23;20021;-77
2023/08/26 10:20:51;;;;;;;5.68;2.53;;;23.20;99.90;;;;;;6156944;23;20017;-78
2023/08/26 10:23:17;;;;;;;5.57;2.38;;;23.40;99.90;;;;;;6157607;23;20009;-78
2023/08/26 10:25:43;;;;;;;7.68;2.60;;;23.10;99.90;;;;;;6158313;23;20009;-80
2023/08/26 10:28:10;;;;;;;5.60;2.30;;;22.80;99.90;;;;;;6158547;23;20005;-79
2023/08/26 10:30:36;;;;;;;5.10;2.20;;;22.50;99.90;;;;;;6159108;23;20016;-79
2023/08/26 10:33:04;;;;;;;7.82;2.47;;;22.60;99.90;;;;;;6157858;23;20090;-79
2023/08/26 10:35:30;;;;;;;5.30;2.17;;;22.90;99.90;;;;;;6158687;23;20021;-79
2023/08/26 10:38:13;;;;;;;4.10;2.10;;;23.40;99.90;;;;;;6159689;23;20021;-79
2023/08/26 10:40:39;;;;;;;3.03;2.10;;;23.80;99.90;;;;;;6136090;23;20009;-80
2023/08/26 10:43:09;;;;;;;5.55;2.20;;;23.70;99.90;;;;;;6184410;23;20079;-80
2023/08/26 10:45:49;;;;;;;4.40;1.70;;;23.40;99.90;;;;;;6160331;23;20013;-80
2023/08/26 10:48:14;;;;;;;3.88;1.85;;;23.10;99.90;;;;;;6135529;23;20009;-80
2023/08/26 10:50:44;;;;;;;4.95;1.80;;;23.00;99.90;;;;;;6159342;23;20019;-79
2023/08/26 10:53:20;;;;;;;2.30;1.15;;;22.80;99.90;;;;;;6160286;23;20009;-80
2023/08/26 10:55:50;;;;;;;3.05;1.13;;;22.70;99.90;;;;;;6159341;23;20393;-81
2023/08/26 10:58:18;;;;;;;2.95;1.17;;;22.50;99.90;;;;;;6160453;23;20067;-79
2023/08/26 11:00:49;;;;;;;3.63;1.45;;;22.70;99.90;;;;;;6160860;23;20020;-80
2023/08/26 11:03:17;;;;;;;2.80;1.30;;;22.80;99.90;;;;;;6136091;23;20051;-79
2023/08/26 11:05:45;;;;;;;2.55;1.30;;;22.70;99.90;;;;;;6160243;23;20016;-79
2023/08/26 11:08:11;;;;;;;3.00;1.30;;;22.50;99.90;;;;;;6159628;23;20063;-78
2023/08/26 11:10:41;;;;;;;2.60;1.38;;;22.40;99.90;;;;;;6132654;23;20009;-80
2023/08/26 11:13:09;;;;;;;3.50;1.50;;;22.60;99.90;;;;;;6161910;23;20067;-80
2023/08/26 11:15:42;;;;;;;3.42;1.40;;;23.00;99.90;;;;;;6159181;23;20465;-80
2023/08/26 11:18:08;;;;;;;;;;;23.30;99.90;;;;;;6159998;23;20024;-80
2023/08/26 11:20:34;;;;;;;8.23;2.00;;;23.60;99.90;;;;;;6160229;23;19912;-79
2023/08/26 11:23:02;;;;;;;2.63;1.92;;;23.90;99.90;;;;;;6161066;23;20010;-78
2023/08/26 11:25:28;;;;;;;4.95;2.20;;;24.20;99.90;;;;;;6160531;23;20013;-78
2023/08/26 11:27:54;;;;;;;3.03;1.70;;;24.50;99.90;;;;;;6135497;23;20009;-78
2023/08/26 11:30:20;;;;;;;6.47;1.83;;;24.80;99.90;;;;;;6160773;23;20017;-80
2023/08/26 11:32:49;;;;;;;3.20;1.75;;;24.90;99.90;;;;;;6134622;23;20326;-78
2023/08/26 11:35:15;;;;;;;2.97;1.85;;;24.90;99.90;;;;;;6159930;23;20013;-78
2023/08/26 11:37:47;;;;;;;5.03;1.77;;;25.20;99.90;;;;;;6159948;23;20005;-80
2023/08/26 11:40:15;;;;;;;3.90;1.80;;;25.30;99.90;;;;;;6160923;23;20052;-77
2023/08/26 11:42:41;;;;;;;3.33;1.48;;;25.20;99.90;;;;;;6159969;23;20009;-81
2023/08/26 11:45:10;;;;;;;3.38;1.48;;;25.00;99.90;;;;;;6160002;23;20349;-80
2023/08/26 11:47:36;;;;;;;3.92;1.50;;;24.80;99.90;;;;;;6157549;23;20520;-80
2023/08/26 11:50:03;;;;;;;3.30;1.88;;;24.60;99.90;;;;;;6158096;23;20052;-79
2023/08/26 11:52:37;;;;;;;1.65;1.42;;;24.20;99.90;;;;;;6159169;23;20017;-78
2023/08/26 11:55:05;;;;;;;4.60;1.85;;;24.30;99.90;;;;;;6134190;23;20012;-78
2023/08/26 11:57:36;;;;;;;3.30;1.35;;;24.50;99.90;;;;;;6159096;23;20016;-77
2023/08/26 12:00:13;;;;;;;2.35;1.48;;;24.90;99.90;;;;;;6134973;23;20017;-78
2023/08/26 12:02:44;;;;;;;3.20;1.88;;;25.20;99.90;;;;;;6159120;23;20426;-77
2023/08/26 12:05:11;;;;;;;2.95;1.75;;;25.20;99.90;;;;;;6160181;23;20013;-78
2023/08/26 12:07:46;;;;;;;3.40;1.80;;;25.10;99.90;;;;;;6160413;23;20017;-79
2023/08/26 12:10:13;;;;;;;2.83;1.88;;;25.10;99.90;;;;;;6159690;23;20020;-78
2023/08/26 12:12:41;;;;;;;3.92;1.98;;;25.10;99.90;;;;;;6137445;23;20092;-79
2023/08/26 12:15:09;;;;;;;2.88;1.98;;;25.10;99.90;;;;;;6160975;23;20480;-79
2023/08/26 12:17:45;;;;;;;5.88;1.95;;;25.20;99.90;;;;;;6161942;23;20013;-79
2023/08/26 12:20:20;;;;;;;3.85;2.25;;;25.30;99.90;;;;;;6160829;23;20550;-79
2023/08/26 12:22:46;;;;;;;2.67;1.98;;;25.50;99.90;;;;;;6162195;23;20385;-79
2023/08/26 12:25:16;;;;;;;2.85;1.90;;;25.20;99.90;;;;;;6162963;23;20013;-79
2023/08/26 12:27:42;;;;;;;3.05;2.50;;;25.00;99.90;;;;;;6137659;23;20013;-79
2023/08/26 12:30:08;;;;;;;2.88;1.88;;;24.90;99.90;;;;;;6184882;23;20527;-79
2023/08/26 12:32:35;;;;;;;3.33;2.10;;;25.10;99.90;;;;;;6157725;23;20225;-79